createdAt,value
2018-09-12T00:00:29.345Z,12.70
2018-09-12T00:03:00.362Z,16.15
2018-09-12T00:05:30.343Z,14.83
2018-09-12T00:08:00.913Z,13.30
2018-09-12T00:10:31.235Z,18.57
2018-09-12T00:13:01.769Z,17.42
2018-09-12T00:15:32.509Z,21.35
2018-09-12T00:18:03.514Z,18.02
2018-09-12T00:20:34.034Z,14.50
2018-09-12T00:23:04.558Z,14.75
2018-09-12T00:25:34.892Z,16.12
2018-09-12T00:28:05.243Z,17.25
2018-09-12T00:30:35.770Z,21.90
2018-09-12T00:33:06.358Z,18.30
2018-09-12T00:35:37.684Z,19.12
2018-09-12T00:38:08.234Z,17.37
2018-09-12T00:40:38.770Z,17.48
2018-09-12T00:43:09.602Z,15.78
2018-09-12T00:45:40.106Z,18.32
2018-09-12T00:48:10.614Z,21.77
2018-09-12T00:50:40.954Z,23.15
2018-09-12T00:53:11.780Z,19.00
2018-09-12T00:55:42.082Z,16.05
2018-09-12T00:58:12.630Z,14.05
2018-09-12T01:00:43.445Z,17.25
2018-09-12T01:03:13.989Z,15.38
2018-09-12T01:05:44.515Z,18.55
2018-09-12T01:08:15.074Z,19.20
2018-09-12T01:10:45.610Z,17.17
2018-09-12T01:13:17.017Z,16.90
2018-09-12T01:15:47.321Z,15.70
2018-09-12T01:18:18.453Z,18.12
2018-09-12T01:20:50.194Z,17.80
2018-09-12T01:23:21.545Z,18.02
2018-09-12T01:25:52.070Z,16.10
2018-09-12T01:28:22.986Z,16.82
2018-09-12T01:30:53.290Z,14.75
2018-09-12T01:33:23.844Z,13.13
2018-09-12T01:35:54.368Z,16.27
2018-09-12T01:38:24.900Z,13.83
2018-09-12T01:40:55.202Z,12.50
2018-09-12T01:43:25.742Z,15.38
2018-09-12T01:45:56.359Z,17.82
2018-09-12T01:48:27.154Z,17.02
2018-09-12T01:50:57.734Z,11.45
2018-09-12T01:53:28.283Z,17.73
2018-09-12T01:55:58.805Z,12.75
2018-09-12T01:58:29.323Z,11.80
2018-09-12T02:00:59.838Z,16.73
2018-09-12T02:03:30.730Z,12.45
2018-09-12T02:06:01.238Z,11.68
2018-09-12T02:08:31.796Z,15.00
2018-09-12T02:11:02.630Z,14.87
2018-09-12T02:13:33.158Z,16.97
2018-09-12T02:16:03.710Z,11.90
2018-09-12T02:18:34.255Z,12.03
2018-09-12T02:21:04.570Z,23.52
2018-09-12T02:23:35.263Z,14.73
2018-09-12T02:26:06.114Z,19.67
2018-09-12T02:28:36.422Z,12.90
2018-09-12T02:31:07.170Z,14.75
2018-09-12T02:33:39.141Z,16.23
2018-09-12T02:36:15.030Z,10.08
2018-09-12T02:38:45.922Z,13.90
2018-09-12T02:41:17.002Z,16.97
2018-09-12T02:43:47.726Z,12.25
2018-09-12T02:46:18.266Z,17.77
2018-09-12T02:48:48.838Z,15.45
2018-09-12T02:51:19.370Z,15.80
2018-09-12T02:53:49.892Z,11.53
2018-09-12T02:56:20.223Z,11.93
2018-09-12T02:58:50.213Z,19.90
2018-09-12T03:01:20.736Z,12.47
2018-09-12T03:03:51.071Z,16.85
2018-09-12T03:06:21.780Z,19.65
2018-09-12T03:08:52.691Z,13.28
2018-09-12T03:11:23.006Z,11.97
2018-09-12T03:13:53.314Z,16.00
2018-09-12T03:16:23.831Z,13.32
2018-09-12T03:18:54.358Z,13.43
2018-09-12T03:21:24.662Z,12.70
2018-09-12T03:23:55.358Z,11.28
2018-09-12T03:26:25.870Z,11.43
2018-09-12T03:28:56.703Z,11.08
2018-09-12T03:31:27.446Z,16.35
2018-09-12T03:33:57.978Z,11.80
2018-09-12T03:36:28.502Z,16.37
2018-09-12T03:38:59.254Z,10.32
2018-09-12T03:41:29.558Z,12.53
2018-09-12T03:43:59.352Z,14.83
2018-09-12T03:46:29.882Z,13.40
2018-09-12T03:49:00.682Z,12.00
2018-09-12T03:51:31.238Z,14.55
2018-09-12T03:54:01.783Z,13.00
2018-09-12T03:56:32.350Z,12.00
2018-09-12T03:59:02.734Z,11.93
2018-09-12T04:01:33.237Z,12.60
2018-09-12T04:04:03.795Z,13.30
2018-09-12T04:06:34.110Z,9.43
2018-09-12T04:09:04.839Z,14.58
2018-09-12T04:11:35.354Z,8.35
2018-09-12T04:14:06.183Z,10.03
2018-09-12T04:16:36.765Z,12.78
2018-09-12T04:19:07.641Z,11.83
2018-09-12T04:21:38.378Z,10.45
2018-09-12T04:24:09.679Z,11.15
2018-09-12T04:26:40.455Z,9.38
2018-09-12T04:29:11.038Z,10.40
2018-09-12T04:31:41.754Z,11.00
2018-09-12T04:34:12.080Z,10.98
2018-09-12T04:36:42.391Z,11.40
2018-09-12T04:39:13.542Z,10.93
2018-09-12T04:41:44.438Z,11.15
2018-09-12T04:44:15.393Z,10.85
2018-09-12T04:46:45.942Z,14.43
2018-09-12T04:49:16.289Z,9.63
2018-09-12T04:51:47.025Z,9.85
2018-09-12T04:54:17.566Z,10.98
2018-09-12T04:56:48.106Z,10.48
2018-09-12T04:59:18.687Z,10.28
2018-09-12T05:01:49.195Z,7.72
2018-09-12T05:04:19.730Z,11.55
2018-09-12T05:06:50.038Z,9.93
2018-09-12T05:09:20.559Z,8.23
2018-09-12T05:11:51.084Z,11.05
2018-09-12T05:14:21.685Z,10.90
2018-09-12T05:16:52.710Z,8.58
2018-09-12T05:19:23.529Z,9.83
2018-09-12T05:21:54.069Z,13.53
2018-09-12T05:24:24.644Z,11.15
2018-09-12T05:26:55.134Z,8.05
2018-09-12T05:29:25.860Z,11.12
2018-09-12T05:32:13.455Z,9.30
2018-09-12T05:34:45.055Z,11.50
2018-09-12T05:37:15.374Z,11.12
2018-09-12T05:39:46.215Z,14.23
2018-09-12T05:42:16.535Z,12.37
2018-09-12T05:44:47.121Z,11.05
2018-09-12T05:47:17.462Z,2.52
2018-09-12T05:49:47.993Z,1.57
2018-09-12T05:52:18.263Z,0.90
2018-09-12T05:54:49.426Z,1.40
2018-09-12T05:57:20.222Z,1.17
2018-09-12T05:59:50.752Z,1.55
2018-09-12T06:02:21.070Z,1.65
2018-09-12T06:04:51.682Z,1.10
2018-09-12T06:07:22.193Z,1.67
2018-09-12T06:09:52.945Z,1.82
2018-09-12T06:12:23.462Z,0.78
2018-09-12T06:14:54.018Z,2.02
2018-09-12T06:17:24.606Z,1.47
2018-09-12T06:19:55.186Z,0.93
2018-09-12T06:22:25.490Z,1.15
2018-09-12T06:24:56.142Z,3.12
2018-09-12T06:27:26.457Z,2.35
2018-09-12T06:29:56.835Z,1.25
2018-09-12T06:32:27.162Z,0.65
2018-09-12T06:34:57.446Z,1.15
2018-09-12T06:37:27.862Z,1.10
2018-09-12T06:39:58.410Z,5.58
2018-09-12T06:42:28.660Z,4.65
2018-09-12T06:44:59.086Z,1.67
2018-09-12T06:47:29.654Z,1.98
2018-09-12T06:49:59.370Z,3.02
2018-09-12T06:52:29.385Z,4.00
2018-09-12T06:54:59.910Z,3.45
2018-09-12T06:57:30.882Z,4.30
2018-09-12T07:00:03.033Z,3.75
2018-09-12T07:02:33.178Z,4.00
2018-09-12T07:05:04.627Z,3.83
2018-09-12T07:07:34.845Z,1.92
2018-09-12T07:10:06.098Z,2.55
2018-09-12T07:12:36.106Z,3.33
2018-09-12T07:15:06.740Z,4.37
2018-09-12T07:17:36.946Z,1.75
2018-09-12T07:20:07.557Z,3.08
2018-09-12T07:22:38.174Z,2.80
2018-09-12T07:25:08.826Z,2.58
2018-09-12T07:27:38.895Z,5.40
2018-09-12T07:30:09.059Z,3.67
2018-09-12T07:32:39.837Z,4.78
2018-09-12T07:35:10.100Z,3.17
2018-09-12T07:37:40.167Z,4.97
2018-09-12T07:40:10.834Z,6.47
2018-09-12T07:42:40.826Z,4.97
2018-09-12T07:45:11.734Z,5.97
2018-09-12T07:47:41.720Z,7.00
2018-09-12T07:50:11.707Z,6.45
2018-09-12T07:52:42.114Z,4.58
2018-09-12T07:55:12.691Z,5.62
2018-09-12T07:57:42.863Z,7.17
2018-09-12T08:00:13.678Z,6.13
2018-09-12T08:02:43.723Z,6.83
2018-09-12T08:05:14.003Z,6.90
2018-09-12T08:07:44.170Z,5.90
2018-09-12T08:10:14.187Z,8.07
2018-09-12T08:12:44.146Z,6.40
2018-09-12T08:15:14.118Z,6.83
2018-09-12T08:17:44.100Z,3.03
2018-09-12T08:20:14.080Z,4.70
2018-09-12T08:22:44.050Z,4.17
2018-09-12T08:25:14.028Z,4.47
2018-09-12T08:27:44.002Z,4.28
2018-09-12T08:30:14.873Z,4.95
2018-09-12T08:32:44.974Z,4.83
2018-09-12T08:35:16.579Z,3.00
2018-09-12T08:37:47.131Z,2.85
2018-09-12T08:40:17.107Z,4.40
2018-09-12T08:42:47.102Z,6.85
2018-09-12T08:45:17.130Z,3.07
2018-09-12T08:47:47.196Z,3.35
2018-09-12T08:50:17.074Z,4.25
2018-09-12T08:52:47.302Z,3.70
2018-09-12T08:55:17.270Z,2.23
2018-09-12T08:57:47.275Z,3.17
2018-09-12T09:00:17.289Z,2.63
2018-09-12T09:02:47.427Z,5.58
2018-09-12T09:05:17.434Z,2.47
2018-09-12T09:07:47.418Z,2.57
2018-09-12T09:10:17.190Z,4.53
2018-09-12T09:12:47.835Z,2.47
2018-09-12T09:15:18.655Z,3.33
2018-09-12T09:17:48.650Z,2.35
2018-09-12T09:20:18.574Z,3.55
2018-09-12T09:22:48.571Z,3.95
2018-09-12T09:25:19.276Z,3.22
2018-09-12T09:27:49.847Z,2.40
2018-09-12T09:30:20.188Z,2.12
2018-09-12T09:32:50.458Z,4.00
2018-09-12T09:35:21.437Z,3.15
2018-09-12T09:37:52.228Z,3.02
2018-09-12T09:40:23.574Z,2.50
2018-09-12T09:51:52.585Z,1.22
2018-09-12T09:54:23.122Z,1.60
2018-09-12T09:56:53.287Z,1.70
2018-09-12T09:59:23.274Z,3.47
2018-09-12T10:01:59.357Z,2.40
2018-09-12T10:04:35.382Z,2.77
2018-09-12T10:08:11.255Z,1.85
2018-09-12T10:10:41.238Z,2.33
2018-09-12T10:13:11.208Z,2.62
2018-09-12T10:15:40.966Z,1.42
2018-09-12T10:18:11.024Z,1.52
2018-09-12T10:20:40.978Z,1.80
2018-09-12T10:23:13.842Z,1.70
2018-09-12T10:25:43.922Z,2.70
2018-09-12T10:28:13.698Z,0.90
2018-09-12T10:30:43.750Z,1.47
2018-09-12T10:33:14.451Z,1.10
2018-09-12T10:35:45.027Z,1.32
2018-09-12T10:38:15.495Z,2.37
2018-09-12T10:40:45.522Z,1.32
2018-09-12T10:43:15.899Z,2.65
2018-09-12T10:45:46.459Z,2.60
2018-09-12T10:48:16.234Z,1.27
2018-09-12T10:50:46.778Z,2.83
2018-09-12T10:53:18.270Z,4.55
2018-09-12T10:55:48.240Z,2.05
2018-09-12T10:58:18.214Z,3.87
2018-09-12T11:00:48.182Z,4.15
2018-09-12T11:03:18.739Z,1.65
2018-09-12T11:05:49.038Z,3.00
2018-09-12T11:08:19.693Z,2.75
2018-09-12T11:10:50.234Z,3.47
2018-09-12T11:13:20.355Z,2.15
2018-09-12T11:15:50.925Z,2.65
2018-09-12T11:18:21.102Z,3.63
2018-09-12T11:20:51.358Z,1.80
2018-09-12T11:23:22.062Z,3.40
2018-09-12T11:25:52.598Z,1.77
2018-09-12T11:28:23.246Z,3.35
2018-09-12T11:30:53.790Z,2.98
2018-09-12T11:33:23.783Z,3.30
2018-09-12T11:35:53.548Z,2.77
2018-09-12T11:38:24.104Z,1.45
2018-09-12T11:40:54.082Z,1.12
2018-09-12T11:43:24.062Z,1.27
2018-09-12T11:45:54.274Z,0.90
2018-09-12T11:48:24.294Z,0.98
2018-09-12T11:50:55.031Z,1.37
2018-09-12T11:53:25.366Z,2.25
2018-09-12T11:55:55.348Z,2.62
2018-09-12T11:58:25.538Z,1.90
2018-09-12T12:00:55.748Z,1.33
2018-09-12T12:03:25.541Z,1.00
2018-09-12T12:05:56.276Z,2.67
2018-09-12T12:08:27.014Z,1.95
2018-09-12T12:10:56.990Z,1.30
2018-09-12T12:13:26.987Z,2.35
2018-09-12T12:15:57.531Z,1.10
2018-09-12T12:18:29.012Z,3.87
2018-09-12T12:20:58.987Z,1.87
2018-09-12T12:23:28.968Z,2.02
2018-09-12T12:25:59.498Z,0.62
2018-09-12T12:28:29.607Z,1.55
2018-09-12T12:31:00.386Z,1.22
2018-09-12T12:33:31.183Z,4.90
2018-09-12T12:36:01.324Z,1.90
2018-09-12T12:38:31.911Z,2.50
2018-09-12T12:41:02.282Z,1.10
2018-09-12T12:43:32.571Z,2.62
2018-09-12T12:46:02.568Z,1.65
2018-09-12T12:48:32.711Z,3.35
2018-09-12T12:51:03.263Z,3.98
2018-09-12T12:53:33.817Z,2.42
2018-09-12T12:56:04.334Z,1.52
2018-09-12T12:58:34.112Z,1.75
2018-09-12T13:01:04.660Z,0.80
2018-09-12T13:03:35.502Z,4.58
2018-09-12T13:06:06.738Z,1.52
2018-09-12T13:08:37.266Z,3.85
2018-09-12T13:11:07.279Z,2.60
2018-09-12T13:13:37.826Z,2.00
2018-09-12T13:16:08.151Z,3.20
2018-09-12T13:18:38.731Z,3.60
2018-09-12T13:21:09.085Z,2.65
2018-09-12T13:23:39.627Z,3.98
2018-09-12T13:26:09.947Z,6.17
2018-09-12T13:28:40.515Z,4.15
2018-09-12T13:31:10.570Z,4.08
2018-09-12T13:33:41.123Z,4.78
2018-09-12T13:36:11.240Z,3.05
2018-09-12T13:38:41.301Z,2.62
2018-09-12T13:41:11.835Z,3.00
2018-09-12T13:43:42.017Z,3.70
2018-09-12T13:46:12.739Z,5.17
2018-09-12T13:48:42.749Z,6.30
2018-09-12T13:51:12.763Z,3.30
2018-09-12T13:53:42.771Z,4.65
2018-09-12T13:56:13.306Z,4.60
2018-09-12T13:58:45.750Z,5.58
2018-09-12T14:01:16.353Z,4.75
2018-09-12T14:03:46.965Z,3.20
2018-09-12T14:06:16.945Z,4.42
2018-09-12T14:08:47.027Z,5.65
2018-09-12T14:11:17.878Z,3.00
2018-09-12T14:13:47.910Z,3.95
2018-09-12T14:16:17.681Z,2.72
2018-09-12T14:18:47.752Z,1.43
2018-09-12T14:21:18.310Z,1.55
2018-09-12T14:23:48.942Z,2.52
2018-09-12T14:26:19.609Z,3.17
2018-09-12T14:28:50.387Z,1.87
2018-09-12T14:31:21.042Z,2.62
2018-09-12T14:33:51.778Z,2.70
2018-09-12T14:36:21.938Z,4.17
2018-09-12T14:38:52.548Z,1.92
2018-09-12T14:41:22.711Z,4.10
2018-09-12T14:43:52.893Z,3.65
2018-09-12T14:46:23.422Z,2.70
2018-09-12T14:48:53.414Z,4.67
2018-09-12T14:51:23.428Z,3.87
2018-09-12T14:53:54.548Z,3.52
2018-09-12T14:56:24.530Z,4.17
2018-09-12T14:58:54.494Z,2.17
2018-09-12T15:01:25.206Z,3.25
2018-09-12T15:03:55.230Z,8.37
2018-09-12T15:06:25.262Z,4.47
2018-09-12T15:08:55.245Z,2.50
2018-09-12T15:11:25.050Z,3.67
2018-09-12T15:13:57.086Z,6.37
2018-09-12T15:16:27.071Z,5.70
2018-09-12T15:18:56.938Z,6.78
2018-09-12T15:21:27.478Z,3.80
2018-09-12T15:23:57.236Z,3.50
2018-09-12T15:26:27.255Z,2.72
2018-09-12T15:28:57.814Z,2.65
2018-09-12T15:31:27.946Z,4.67
2018-09-12T15:33:59.518Z,1.80
2018-09-12T15:36:29.319Z,4.33
2018-09-12T15:38:59.866Z,2.72
2018-09-12T15:41:29.874Z,6.25
2018-09-12T15:44:00.643Z,7.90
2018-09-12T15:46:31.530Z,3.55
2018-09-12T15:49:01.306Z,2.72
2018-09-12T15:51:31.879Z,4.15
2018-09-12T15:54:02.420Z,2.77
2018-09-12T15:56:32.234Z,6.47
2018-09-12T15:59:02.053Z,4.08
2018-09-12T16:01:32.559Z,6.47
2018-09-12T16:04:02.311Z,4.80
2018-09-12T16:06:33.014Z,2.52
2018-09-12T16:09:02.983Z,4.22
2018-09-12T16:11:33.520Z,3.00
2018-09-12T16:14:04.503Z,5.60
2018-09-12T16:16:35.316Z,4.37
2018-09-12T16:19:06.086Z,3.75
2018-09-12T16:21:36.702Z,6.58
2018-09-12T16:24:06.900Z,3.75
2018-09-12T16:26:37.042Z,4.73
2018-09-12T16:29:07.242Z,9.70
2018-09-12T16:31:37.334Z,4.03
2018-09-12T16:34:07.784Z,2.98
2018-09-12T16:36:38.163Z,4.57
2018-09-12T16:39:11.241Z,5.53
2018-09-12T16:41:41.603Z,5.10
2018-09-12T16:44:11.834Z,1.87
2018-09-12T16:46:42.002Z,2.62
2018-09-12T16:49:12.051Z,5.07
2018-09-12T16:51:42.157Z,2.42
2018-09-12T16:54:12.357Z,4.20
2018-09-12T16:56:42.950Z,2.45
2018-09-12T16:59:13.065Z,3.87
2018-09-12T17:01:42.827Z,2.83
2018-09-12T17:04:13.365Z,2.72
2018-09-12T17:06:43.338Z,5.47
2018-09-12T17:09:13.911Z,3.05
2018-09-12T17:11:43.866Z,5.00
2018-09-12T17:14:13.912Z,3.77
2018-09-12T17:16:44.022Z,4.58
2018-09-12T17:19:14.022Z,3.02
2018-09-12T17:21:44.567Z,4.40
2018-09-12T17:24:14.846Z,6.08
2018-09-12T17:26:44.611Z,4.37
2018-09-12T17:29:14.625Z,4.08
2018-09-12T17:31:44.695Z,2.17
2018-09-12T17:34:14.980Z,2.50
2018-09-12T17:36:45.482Z,6.33
2018-09-12T17:39:15.473Z,3.98
2018-09-12T17:41:45.494Z,4.07
2018-09-12T17:44:16.101Z,3.33
2018-09-12T17:46:46.607Z,7.20
2018-09-12T17:49:17.218Z,5.80
2018-09-12T17:51:46.970Z,7.62
2018-09-12T17:54:17.518Z,3.22
2018-09-12T17:56:47.300Z,3.30
2018-09-12T17:59:17.663Z,6.17
2018-09-12T18:01:47.997Z,3.77
2018-09-12T18:04:17.985Z,5.28
2018-09-12T18:06:47.982Z,7.12
2018-09-12T18:09:18.306Z,7.33
2018-09-12T18:11:48.068Z,4.00
2018-09-12T18:14:18.074Z,5.10
2018-09-12T18:16:48.059Z,2.35
2018-09-12T18:19:18.050Z,4.97
2018-09-12T18:21:48.088Z,5.00
2018-09-12T18:24:18.134Z,4.78
2018-09-12T18:26:48.814Z,7.95
2018-09-12T18:29:19.688Z,4.28
2018-09-12T18:31:49.902Z,4.87
2018-09-12T18:34:19.893Z,6.30
2018-09-12T18:36:50.222Z,5.83
2018-09-12T18:39:20.491Z,4.75
2018-09-12T18:41:50.666Z,5.87
2018-09-12T18:44:20.478Z,3.95
2018-09-12T18:46:50.246Z,5.00
2018-09-12T18:49:20.758Z,3.85
2018-09-12T18:51:50.726Z,4.40
2018-09-12T18:54:21.118Z,4.13
2018-09-12T18:56:50.941Z,6.00
2018-09-12T18:59:20.983Z,4.83
2018-09-12T19:01:50.738Z,2.53
2018-09-12T19:04:20.539Z,3.93
2018-09-12T19:06:50.869Z,1.67
2018-09-12T19:09:20.998Z,3.83
2018-09-12T19:11:51.878Z,2.77
2018-09-12T19:14:21.848Z,4.53
2018-09-12T19:16:51.606Z,5.75
2018-09-12T19:19:21.611Z,4.87
2018-09-12T19:21:51.799Z,3.05
2018-09-12T19:24:22.028Z,2.75
2018-09-12T19:26:52.042Z,4.22
2018-09-12T19:29:22.002Z,4.67
2018-09-12T19:31:51.750Z,4.58
2018-09-12T19:34:22.046Z,4.90
2018-09-12T19:36:51.810Z,3.23
2018-09-12T19:39:22.347Z,5.75
2018-09-12T19:41:52.144Z,5.53
2018-09-12T19:44:22.850Z,5.80
2018-09-12T19:46:52.606Z,6.03
2018-09-12T19:49:23.330Z,3.42
2018-09-12T19:51:53.214Z,3.85
2018-09-12T19:54:23.172Z,2.67
2018-09-12T19:56:53.140Z,3.92
2018-09-12T19:59:23.122Z,5.30
2018-09-12T20:01:53.163Z,5.80
2018-09-12T20:04:24.106Z,6.33
2018-09-12T20:06:54.154Z,6.53
2018-09-12T20:09:24.278Z,7.75
2018-09-12T20:11:54.407Z,8.77
2018-09-12T20:14:24.813Z,7.00
2018-09-12T20:16:55.726Z,6.87
2018-09-12T20:19:25.969Z,4.22
2018-09-12T20:21:55.739Z,5.78
2018-09-12T20:24:25.484Z,5.28
2018-09-12T20:26:55.542Z,5.42
2018-09-12T20:29:25.579Z,4.92
2018-09-12T20:31:55.730Z,4.85
2018-09-12T20:34:26.458Z,6.92
2018-09-12T20:36:56.631Z,5.35
2018-09-12T20:39:26.591Z,8.20
2018-09-12T20:41:57.127Z,6.75
2018-09-12T20:44:27.662Z,9.43
2018-09-12T20:46:57.647Z,6.03
2018-09-12T20:49:27.411Z,6.67
2018-09-12T20:51:57.390Z,7.27
2018-09-12T20:54:27.657Z,4.43
2018-09-12T20:56:57.434Z,6.92
2018-09-12T20:59:27.502Z,7.65
2018-09-12T21:01:57.484Z,4.23
2018-09-12T21:04:27.446Z,6.33
2018-09-12T21:06:57.456Z,8.13
2018-09-12T21:09:28.022Z,6.45
2018-09-12T21:11:58.342Z,4.50
2018-09-12T21:14:28.627Z,6.17
2018-09-12T21:16:58.846Z,7.67
2018-09-12T21:19:28.818Z,5.40
2018-09-12T21:21:58.810Z,4.87
2018-09-12T21:24:31.074Z,6.28
2018-09-12T21:27:01.393Z,6.87
2018-09-12T21:29:31.393Z,7.12
2018-09-12T21:32:01.367Z,6.77
2018-09-12T21:34:31.353Z,5.62
2018-09-12T21:37:03.002Z,4.83
2018-09-12T21:39:33.171Z,6.42
2018-09-12T21:42:03.160Z,5.25
2018-09-12T21:44:33.310Z,6.70
2018-09-12T21:47:03.282Z,4.43
2018-09-12T21:49:33.514Z,4.95
2018-09-12T21:52:03.751Z,9.55
2018-09-12T21:54:33.739Z,6.95
2018-09-12T21:57:04.043Z,5.35
2018-09-12T21:59:33.804Z,6.05
2018-09-12T22:02:04.129Z,5.08
2018-09-12T22:04:33.853Z,5.00
2018-09-12T22:07:03.602Z,6.58
2018-09-12T22:09:33.565Z,6.67
2018-09-12T22:12:03.532Z,5.67
2018-09-12T22:14:33.499Z,6.30
2018-09-12T22:17:03.488Z,5.30
2018-09-12T22:19:33.483Z,6.23
2018-09-12T22:22:04.025Z,6.05
2018-09-12T22:24:34.558Z,5.92
2018-09-12T22:27:04.538Z,5.63
2018-09-12T22:29:35.066Z,6.65
2018-09-12T22:32:05.594Z,5.97
2018-09-12T22:34:35.590Z,6.20
2018-09-12T22:37:05.366Z,6.08
2018-09-12T22:39:35.347Z,4.53
2018-09-12T22:42:05.345Z,9.73
2018-09-12T22:44:35.508Z,6.00
2018-09-12T22:47:12.002Z,5.43
2018-09-12T22:49:41.784Z,8.55
2018-09-12T22:52:11.746Z,3.70
2018-09-12T22:54:41.515Z,5.80
2018-09-12T22:57:11.288Z,5.97
2018-09-12T22:59:41.297Z,7.35
2018-09-12T23:02:11.042Z,5.13
2018-09-12T23:04:41.041Z,4.97
2018-09-12T23:07:11.542Z,5.03
2018-09-12T23:09:41.302Z,9.73
2018-09-12T23:12:11.068Z,4.17
2018-09-12T23:14:40.818Z,6.40
2018-09-12T23:17:11.114Z,7.80
2018-09-12T23:19:41.176Z,5.67
2018-09-12T23:22:11.400Z,4.87
2018-09-12T23:24:41.140Z,4.33
2018-09-12T23:27:11.118Z,5.58
2018-09-12T23:29:41.426Z,7.05
2018-09-12T23:32:11.397Z,8.50
2018-09-12T23:34:41.152Z,5.63
2018-09-12T23:37:11.126Z,5.57
2018-09-12T23:39:40.867Z,6.43
2018-09-12T23:42:10.638Z,4.90
2018-09-12T23:44:40.430Z,4.90
2018-09-12T23:47:10.506Z,5.17
2018-09-12T23:49:40.266Z,7.25
2018-09-12T23:52:10.246Z,7.00
2018-09-12T23:54:40.238Z,4.63
2018-09-12T23:57:10.192Z,5.63
2018-09-12T23:59:40.230Z,7.60
